Time;durP1;ratioP1;P1;durP2;ratioP2;P2;SDS_P1;SDS_P2;PMS_P1;PMS_P2;Temp;Humidity;BMP_temperature;BMP_pressure;BME280_temperature;BME280_humidity;BME280_pressure;Samples;Min_cycle;Max_cycle;Signal;HPM_P1;HPM_P2
2021/07/02 00:01:07;;;;;;;37.53;20.38;;;;;;;16.15;75.56;100380.94;5059373;28;20045;-82
2021/07/02 00:03:36;;;;;;;43.20;21.40;;;;;;;16.16;75.53;100379.75;5059311;28;20060;-81
2021/07/02 00:06:05;;;;;;;39.45;22.33;;;;;;;16.16;75.40;100379.75;5059662;28;20056;-81
2021/07/02 00:08:33;;;;;;;;;;;;;;;16.19;74.94;100374.25;5061411;28;20049;-81
2021/07/02 00:11:02;;;;;;;37.10;21.65;;;;;;;16.15;75.42;100369.72;5049748;28;19961;-80
2021/07/02 00:13:32;;;;;;;40.47;22.58;;;;;;;16.14;75.22;100366.06;5040829;28;20049;-82
2021/07/02 00:15:59;;;;;;;35.33;21.38;;;;;;;16.15;75.03;100375.31;5039820;28;20046;-82
2021/07/02 00:18:27;;;;;;;39.47;22.10;;;;;;;16.19;75.07;100364.97;5040177;28;20398;-81
2021/07/02 00:20:56;;;;;;;39.42;22.90;;;;;;;16.22;74.94;100365.09;5039770;28;20474;-82
2021/07/02 00:23:23;;;;;;;41.53;23.02;;;;;;;16.20;75.05;100361.81;5041265;28;20049;-81
2021/07/02 00:25:52;;;;;;;44.35;22.48;;;;;;;16.23;75.62;100363.94;5060459;28;20056;-81
2021/07/02 00:28:19;;;;;;;40.93;22.43;;;;;;;16.27;75.67;100364.03;5060124;28;20061;-82
2021/07/02 00:30:47;;;;;;;38.70;22.05;;;;;;;16.28;75.10;100356.44;5059784;28;20061;-82
2021/07/02 00:33:14;;;;;;;38.13;22.90;;;;;;;16.30;75.12;100354.09;5019910;28;20050;-81
2021/07/02 00:35:42;;;;;;;39.42;23.63;;;;;;;16.34;74.96;100358.63;5019696;28;20054;-81
2021/07/02 00:38:11;;;;;;;42.40;24.63;;;;;;;16.32;75.15;100360.19;5022697;28;20547;-81
2021/07/02 00:40:39;;;;;;;41.30;24.03;;;;;;;16.35;75.23;100353.81;5059109;28;20052;-81
2021/07/02 00:43:06;;;;;;;35.92;22.90;;;;;;;16.41;75.27;100349.59;5058713;28;20057;-81
2021/07/02 00:45:34;;;;;;;35.75;23.23;;;;;;;16.32;75.42;100343.31;5058230;28;20137;-81
2021/07/02 00:48:02;;;;;;;41.55;22.75;;;;;;;16.42;75.01;100348.41;5059045;28;20052;-81
2021/07/02 00:50:29;;;;;;;42.33;25.17;;;;;;;16.37;75.07;100345.84;5058597;28;20414;-82
2021/07/02 00:52:57;;;;;;;41.55;24.08;;;;;;;16.39;75.29;100343.50;5058116;28;20052;-82
2021/07/02 00:55:26;;;;;;;45.15;23.38;;;;;;;16.46;74.93;100349.31;5019667;28;20061;-82
2021/07/02 00:57:54;;;;;;;40.38;24.77;;;;;;;16.49;74.38;100343.00;5020550;28;20383;-82
2021/07/02 01:00:21;;;;;;;36.20;23.77;;;;;;;16.52;74.46;100342.28;5019721;28;20082;-82
2021/07/02 01:02:50;;;;;;;38.47;23.33;;;;;;;16.54;74.14;100344.72;5019882;28;20061;-81
2021/07/02 01:05:17;;;;;;;39.38;23.00;;;;;;;16.52;74.24;100341.47;5018212;28;20054;-82
2021/07/02 01:07:45;;;;;;;37.90;23.08;;;;;;;16.36;74.89;100338.63;5019167;28;20053;-80
2021/07/02 01:10:16;;;;;;;41.95;23.75;;;;;;;16.26;74.24;100339.91;5037056;28;20401;-81
2021/07/02 01:12:46;;;;;;;40.92;23.27;;;;;;;16.40;74.62;100331.91;5038254;28;20057;-81
2021/07/02 01:15:21;;;;;;;38.80;22.92;;;;;;;16.32;75.14;100332.88;5038540;28;20049;-80
2021/07/02 01:17:49;;;;;;;35.08;22.10;;;;;;;16.40;74.91;100333.91;5041938;28;20049;-81
2021/07/02 01:20:17;;;;;;;40.15;23.27;;;;;;;16.28;75.09;100331.94;5041981;28;20064;-82
2021/07/02 01:22:45;;;;;;;40.88;24.15;;;;;;;16.29;75.39;100327.16;5042924;28;20057;-81
2021/07/02 01:25:13;;;;;;;40.85;22.13;;;;;;;16.35;75.29;100337.78;5039077;28;20056;-80
2021/07/02 01:27:41;;;;;;;43.63;22.83;;;;;;;16.27;75.37;100335.91;5042127;28;20057;-82
2021/07/02 01:30:11;;;;;;;41.40;23.55;;;;;;;16.20;75.46;100330.91;5041720;28;20053;-81
2021/07/02 01:32:38;;;;;;;;;;;;;;;16.10;75.03;100336.22;5040385;28;20053;-82
2021/07/02 01:35:06;;;;;;;38.97;23.55;;;;;;;16.13;75.56;100330.72;5022256;28;20266;-82
2021/07/02 01:37:34;;;;;;;39.05;23.63;;;;;;;16.23;75.38;100330.22;5022428;28;20053;-82
2021/07/02 01:40:04;;;;;;;41.25;23.88;;;;;;;16.26;75.15;100325.06;5021436;28;20434;-81
2021/07/02 01:42:31;;;;;;;40.25;22.17;;;;;;;16.22;75.50;100333.38;5033658;28;20069;-82
2021/07/02 01:44:58;;;;;;;41.22;22.60;;;;;;;16.23;75.43;100330.22;5041325;28;20052;-80
2021/07/02 01:47:26;;;;;;;42.70;23.10;;;;;;;16.16;75.87;100330.00;5041475;28;20061;-80
2021/07/02 01:49:53;;;;;;;35.92;21.85;;;;;;;16.22;75.69;100333.38;5040789;28;20544;-80
2021/07/02 01:52:21;;;;;;;38.33;22.13;;;;;;;16.30;75.44;100329.59;5040696;28;20060;-81
2021/07/02 01:54:48;;;;;;;41.55;22.15;;;;;;;16.24;75.32;100329.03;5040916;28;20050;-81
2021/07/02 01:57:24;;;;;;;35.60;21.65;;;;;;;16.23;75.61;100330.22;5043717;28;20049;-82
2021/07/02 01:59:52;;;;;;;36.10;22.88;;;;;;;16.24;75.47;100334.66;5042638;28;20057;-82
2021/07/02 02:02:20;;;;;;;38.40;23.17;;;;;;;16.15;75.89;100328.38;5042438;28;20053;-80
2021/07/02 02:04:48;;;;;;;38.53;22.63;;;;;;;16.23;75.27;100335.84;5041960;28;20060;-82
2021/07/02 02:07:15;;;;;;;40.15;23.10;;;;;;;16.21;75.03;100331.72;5042066;28;20057;-81
2021/07/02 02:09:43;;;;;;;39.75;23.40;;;;;;;16.15;75.32;100334.00;5042206;28;20045;-82
2021/07/02 02:12:11;;;;;;;40.60;24.25;;;;;;;16.03;75.68;100331.22;5041674;28;20050;-80
2021/07/02 02:14:39;;;;;;;41.80;25.30;;;;;;;15.96;75.88;100331.81;5040186;28;20060;-80
2021/07/02 02:17:07;;;;;;;37.30;23.07;;;;;;;16.01;75.95;100339.97;5041118;28;20057;-81
2021/07/02 02:19:36;;;;;;;41.30;24.88;;;;;;;16.10;75.50;100337.03;5041366;28;20786;-82
2021/07/02 02:22:05;;;;;;;39.83;23.58;;;;;;;16.14;75.25;100331.53;5040289;28;20057;-80
2021/07/02 02:24:32;;;;;;;43.22;24.20;;;;;;;16.01;75.48;100336.34;5041874;28;20513;-82
2021/07/02 02:27:03;;;;;;;40.38;23.60;;;;;;;15.96;76.11;100331.00;5026473;28;20136;-81
2021/07/02 02:29:30;;;;;;;41.90;23.23;;;;;;;15.92;76.04;100330.06;5019947;28;20050;-81
2021/07/02 02:31:59;;;;;;;42.47;24.17;;;;;;;15.99;75.55;100333.91;5019640;28;20054;-80
2021/07/02 02:34:27;;;;;;;38.85;23.77;;;;;;;15.98;75.42;100329.47;5020877;28;20054;-80
2021/07/02 02:36:54;;;;;;;43.22;22.42;;;;;;;15.92;75.90;100321.66;5021286;28;20395;-82
2021/07/02 02:39:21;;;;;;;39.33;22.50;;;;;;;15.96;75.63;100325.38;5043427;28;20497;-80
2021/07/02 02:41:49;;;;;;;44.47;24.13;;;;;;;15.90;76.23;100327.59;5061122;28;20057;-81
2021/07/02 02:44:16;;;;;;;38.58;23.58;;;;;;;15.98;75.85;100328.63;5060564;28;20049;-81
2021/07/02 02:46:43;;;;;;;39.78;23.35;;;;;;;15.98;75.90;100325.81;5060691;28;20061;-82
2021/07/02 02:49:12;;;;;;;40.45;23.17;;;;;;;15.97;75.77;100325.00;5060416;28;20057;-82
2021/07/02 02:51:39;;;;;;;39.00;23.13;;;;;;;16.04;75.28;100332.81;5060456;28;20053;-81
2021/07/02 02:54:07;;;;;;;35.65;22.13;;;;;;;15.98;75.41;100323.00;5048453;28;20060;-80
2021/07/02 02:56:34;;;;;;;40.50;23.67;;;;;;;16.03;75.54;100325.59;5039895;28;20479;-81
2021/07/02 02:59:02;;;;;;;40.97;23.80;;;;;;;15.96;75.61;100333.81;5041106;28;20056;-81
2021/07/02 03:01:30;;;;;;;41.63;23.30;;;;;;;15.93;76.27;100328.88;5040995;28;20521;-82
2021/07/02 03:03:57;;;;;;;41.53;23.33;;;;;;;15.99;75.79;100335.91;5041230;28;20056;-82
2021/07/02 03:06:26;;;;;;;41.80;24.17;;;;;;;15.91;75.99;100340.47;5041008;28;20486;-82
2021/07/02 03:08:53;;;;;;;42.90;23.57;;;;;;;15.98;75.43;100334.25;5041561;28;20477;-80
2021/07/02 03:11:21;;;;;;;43.75;24.02;;;;;;;15.98;75.73;100345.47;5039858;28;20072;-82
2021/07/02 03:13:49;;;;;;;38.78;23.70;;;;;;;15.99;75.69;100333.91;5041285;28;20052;-82
2021/07/02 03:16:16;;;;;;;38.70;24.50;;;;;;;16.00;75.39;100343.97;5041067;28;20045;-81
2021/07/02 03:18:44;;;;;;;41.25;23.85;;;;;;;15.96;75.59;100339.44;5039437;28;20050;-81
2021/07/02 03:21:11;;;;;;;42.83;23.35;;;;;;;15.94;75.56;100338.97;5039006;28;20049;-81
2021/07/02 03:23:40;;;;;;;45.42;24.33;;;;;;;16.05;75.15;100342.91;5039259;28;20050;-82
2021/07/02 03:26:10;;;;;;;40.77;23.90;;;;;;;16.01;75.64;100347.59;5039864;28;20046;-81
2021/07/02 03:28:40;;;;;;;44.50;24.55;;;;;;;16.07;75.04;100353.81;5040071;28;20049;-81
2021/07/02 03:31:08;;;;;;;41.35;23.98;;;;;;;15.91;75.54;100350.88;5040928;28;20050;-81
2021/07/02 03:33:35;;;;;;;42.10;24.83;;;;;;;16.10;75.13;100356.69;5039685;28;20060;-82
2021/07/02 03:36:03;;;;;;;40.20;23.30;;;;;;;16.18;74.71;100358.56;5039571;28;20060;-81
2021/07/02 03:38:31;;;;;;;41.60;23.25;;;;;;;16.19;74.59;100359.38;5042060;28;20052;-82
2021/07/02 03:40:59;;;;;;;37.67;22.67;;;;;;;16.09;75.03;100354.25;5039358;28;20060;-82
2021/07/02 03:43:27;;;;;;;40.90;24.57;;;;;;;16.17;74.61;100362.56;5039893;28;20050;-82
2021/07/02 03:45:55;;;;;;;41.60;24.25;;;;;;;16.21;74.52;100360.66;5039810;28;20046;-80
2021/07/02 03:48:22;;;;;;;35.95;22.55;;;;;;;16.19;74.46;100360.22;5039611;28;20433;-80
2021/07/02 03:50:49;;;;;;;41.90;22.55;;;;;;;16.21;74.11;100363.47;5039752;28;20050;-81
2021/07/02 03:53:17;;;;;;;43.85;25.00;;;;;;;16.27;73.86;100355.59;5039735;28;20053;-82
2021/07/02 03:55:45;;;;;;;41.33;23.30;;;;;;;16.24;74.21;100354.31;5039149;28;20065;-81
2021/07/02 03:58:17;;;;;;;39.55;23.80;;;;;;;16.12;74.77;100357.16;5039821;28;20049;-82
2021/07/02 04:00:45;;;;;;;40.65;23.08;;;;;;;16.18;74.83;100360.56;5039933;28;20057;-81
2021/07/02 04:03:14;;;;;;;40.20;23.38;;;;;;;16.24;74.36;100361.94;5040130;28;20060;-82
2021/07/02 04:05:44;;;;;;;36.42;22.42;;;;;;;16.42;74.06;100362.47;5039429;28;20045;-81
2021/07/02 04:08:12;;;;;;;42.03;23.65;;;;;;;16.44;73.48;100368.53;5038317;28;20045;-81
2021/07/02 04:10:39;;;;;;;40.35;22.75;;;;;;;16.52;72.79;100366.75;5046721;28;20053;-80
2021/07/02 04:13:09;;;;;;;39.47;23.85;;;;;;;16.49;73.43;100370.31;5058565;28;20053;-82
2021/07/02 04:15:38;;;;;;;40.22;23.58;;;;;;;16.41;73.60;100369.28;5059195;28;20056;-81
2021/07/02 04:18:07;;;;;;;40.17;25.30;;;;;;;16.49;73.19;100364.69;5059162;28;20049;-81
2021/07/02 04:20:37;;;;;;;37.28;22.98;;;;;;;16.44;73.77;100368.53;5058346;28;20053;-82
2021/07/02 04:23:04;;;;;;;37.05;22.25;;;;;;;16.52;73.06;100364.75;5059476;28;20057;-80
2021/07/02 04:25:32;;;;;;;40.20;23.35;;;;;;;16.49;73.92;100370.31;5040003;28;20056;-82
2021/07/02 04:28:00;;;;;;;40.10;23.95;;;;;;;16.52;73.86;100367.56;5039690;28;20045;-81
2021/07/02 04:30:27;;;;;;;36.05;21.50;;;;;;;16.68;73.12;100369.63;5039139;28;20058;-81
2021/07/02 04:32:56;;;;;;;47.30;23.48;;;;;;;16.73;72.62;100375.81;5037584;28;20061;-80
2021/07/02 04:35:24;;;;;;;38.25;23.27;;;;;;;16.51;73.09;100368.75;5038923;28;20060;-82
2021/07/02 04:37:51;;;;;;;38.55;24.02;;;;;;;16.46;73.63;100371.81;5039090;28;20060;-81
2021/07/02 04:40:18;;;;;;;40.92;23.85;;;;;;;16.58;72.31;100377.41;5038471;28;20136;-80
2021/07/02 04:42:45;;;;;;;41.53;25.30;;;;;;;16.54;72.95;100375.66;5038448;28;20053;-80
2021/07/02 04:45:13;;;;;;;37.67;22.52;;;;;;;16.69;72.68;100374.06;5038056;28;20049;-81
2021/07/02 04:47:41;;;;;;;36.95;22.05;;;;;;;16.75;71.95;100375.47;5026167;28;20057;-81
2021/07/02 04:50:10;;;;;;;40.90;22.75;;;;;;;16.78;71.49;100363.50;5020386;28;20053;-82
2021/07/02 04:52:37;;;;;;;38.65;23.17;;;;;;;16.60;72.66;100366.59;5023868;28;20053;-82
2021/07/02 04:55:05;;;;;;;39.00;22.15;;;;;;;16.80;71.71;100364.81;5024345;28;20064;-82
2021/07/02 04:57:33;;;;;;;35.38;21.25;;;;;;;16.95;71.83;100370.81;5023281;28;20057;-82
2021/07/02 05:00:02;;;;;;;34.22;21.67;;;;;;;16.94;71.44;100361.53;5024142;28;20080;-82
2021/07/02 05:02:29;;;;;;;40.00;23.45;;;;;;;17.17;71.06;100369.38;5036163;28;20064;-79
2021/07/02 05:04:57;;;;;;;39.35;22.60;;;;;;;17.21;70.49;100371.13;5042944;28;20053;-82
2021/07/02 05:07:26;;;;;;;37.05;21.55;;;;;;;17.35;69.79;100367.06;5043839;28;20449;-83
2021/07/02 05:09:53;;;;;;;35.08;22.17;;;;;;;17.45;69.78;100366.50;5044299;28;20050;-82
2021/07/02 05:12:21;;;;;;;33.80;20.60;;;;;;;17.51;69.03;100365.03;5052420;28;20045;-82
2021/07/02 05:14:48;;;;;;;32.47;21.17;;;;;;;17.45;69.45;100372.94;5041680;28;20057;-82
2021/07/02 05:17:16;;;;;;;35.30;19.55;;;;;;;17.57;68.53;100374.03;5044742;28;20068;-83
2021/07/02 05:19:43;;;;;;;34.20;20.08;;;;;;;17.44;69.55;100373.31;5037794;28;20534;-82
2021/07/02 05:22:14;;;;;;;34.70;22.17;;;;;;;17.63;68.92;100372.56;5042012;28;20053;-81
2021/07/02 05:24:43;;;;;;;32.05;19.30;;;;;;;17.67;68.55;100373.47;5045780;28;20080;-83
2021/07/02 05:27:10;;;;;;;;;;;;;;;17.59;68.14;100368.84;5045400;28;20052;-82
2021/07/02 05:29:38;;;;;;;35.47;19.80;;;;;;;17.65;68.28;100375.84;5042770;28;19936;-83
2021/07/02 05:32:06;;;;;;;28.52;19.52;;;;;;;17.87;68.39;100376.38;5042163;28;20057;-82
2021/07/02 05:34:34;;;;;;;30.77;19.73;;;;;;;18.05;68.41;100377.63;5042833;28;20057;-82
2021/07/02 05:37:02;;;;;;;30.35;19.10;;;;;;;18.08;67.68;100376.91;5041816;28;20498;-82
2021/07/02 05:39:30;;;;;;;33.90;18.98;;;;;;;18.26;66.76;100378.09;5043804;28;20059;-82
2021/07/02 05:41:59;;;;;;;27.73;17.98;;;;;;;18.41;66.89;100381.22;5044350;28;20057;-81
2021/07/02 05:44:26;;;;;;;30.40;18.92;;;;;;;18.47;65.86;100388.22;5036869;28;20061;-83
2021/07/02 05:46:54;;;;;;;27.63;17.30;;;;;;;18.58;65.66;100383.63;5038740;28;20076;-82
2021/07/02 05:49:21;;;;;;;30.27;18.75;;;;;;;18.69;65.43;100374.53;5042840;28;20054;-81
2021/07/02 05:51:49;;;;;;;25.25;17.27;;;;;;;18.65;63.94;100383.75;5040166;28;20049;-84
2021/07/02 05:54:17;;;;;;;24.13;17.00;;;;;;;18.12;65.85;100383.44;5041206;28;20060;-86
2021/07/02 05:56:45;;;;;;;28.38;16.25;;;;;;;18.18;66.56;100379.13;5038291;28;20056;-85
2021/07/02 05:59:14;;;;;;;25.63;15.35;;;;;;;18.08;65.92;100384.50;5039225;28;20498;-86
2021/07/02 06:01:42;;;;;;;26.73;17.00;;;;;;;18.19;65.54;100392.03;5021091;28;20065;-86
2021/07/02 06:04:09;;;;;;;24.55;16.23;;;;;;;18.22;65.86;100388.47;5023762;28;20049;-86
2021/07/02 06:06:36;;;;;;;21.88;15.38;;;;;;;18.04;66.71;100392.91;5059628;28;20049;-88
2021/07/02 06:09:04;;;;;;;22.83;15.82;;;;;;;18.21;65.93;100388.88;5047727;28;20053;-86
2021/07/02 06:11:31;;;;;;;26.70;17.02;;;;;;;18.26;66.50;100397.81;5043444;28;20060;-84
2021/07/02 06:13:59;;;;;;;26.15;16.65;;;;;;;18.01;66.82;100396.44;5048802;28;20058;-84
2021/07/02 06:16:27;;;;;;;26.15;16.10;;;;;;;18.04;66.26;100390.91;5043276;28;20058;-83
2021/07/02 06:18:55;;;;;;;27.50;16.27;;;;;;;18.11;66.12;100398.69;5044120;28;20064;-83
2021/07/02 06:21:22;;;;;;;24.15;15.63;;;;;;;18.45;65.53;100402.66;5045660;28;20068;-85
2021/07/02 06:23:50;;;;;;;25.33;15.93;;;;;;;18.23;65.70;100407.03;5045601;28;20478;-85
2021/07/02 06:26:18;;;;;;;25.63;15.90;;;;;;;18.21;66.26;100402.97;5045000;28;20053;-86
2021/07/02 06:28:45;;;;;;;23.70;16.15;;;;;;;18.23;66.38;100395.75;5047257;28;20064;-85
2021/07/02 06:31:13;;;;;;;22.95;16.02;;;;;;;18.93;63.49;100398.84;5047216;28;20058;-85
2021/07/02 06:33:43;;;;;;;25.63;16.77;;;;;;;19.08;63.85;100395.09;5048217;28;20057;-86
2021/07/02 06:36:13;;;;;;;20.25;14.75;;;;;;;18.91;62.71;100409.69;5048090;28;20056;-86
2021/07/02 06:38:44;;;;;;;23.38;15.82;;;;;;;18.25;64.53;100399.03;5045636;28;20045;-86
2021/07/02 06:41:12;;;;;;;22.63;15.48;;;;;;;19.10;62.10;100406.03;5045868;28;20061;-81
2021/07/02 06:43:39;;;;;;;21.55;14.63;;;;;;;19.52;60.50;100405.97;5041480;28;20049;-81
2021/07/02 06:46:07;;;;;;;21.10;13.57;;;;;;;19.62;58.70;100410.19;5041595;28;20057;-81
2021/07/02 06:48:34;;;;;;;17.42;11.68;;;;;;;20.21;57.00;100405.91;5035243;28;20073;-80
2021/07/02 06:51:03;;;;;;;19.25;12.15;;;;;;;20.45;56.25;100406.63;5034252;28;20046;-79
2021/07/02 06:53:30;;;;;;;18.15;11.48;;;;;;;20.78;55.60;100402.22;5031366;28;20049;-81
2021/07/02 06:55:58;;;;;;;16.48;10.48;;;;;;;20.82;53.75;100409.56;5041940;28;20501;-82
2021/07/02 06:58:25;;;;;;;14.82;9.80;;;;;;;20.92;53.45;100402.41;5038640;28;20049;-82
2021/07/02 07:00:53;;;;;;;15.73;10.18;;;;;;;20.72;53.73;100410.25;5042286;28;20046;-82
2021/07/02 07:03:20;;;;;;;14.77;10.35;;;;;;;20.84;53.29;100404.34;5038005;28;20508;-81
2021/07/02 07:05:49;;;;;;;13.95;9.25;;;;;;;20.79;53.30;100410.34;5039217;28;20056;-82
2021/07/02 07:08:19;;;;;;;13.38;8.85;;;;;;;20.85;52.65;100407.97;5037662;28;20056;-82
2021/07/02 07:10:46;;;;;;;15.40;9.82;;;;;;;20.84;53.80;100415.66;5033498;28;20056;-81
2021/07/02 07:13:14;;;;;;;14.82;10.88;;;;;;;20.63;53.23;100407.72;5039071;28;20053;-82
2021/07/02 07:15:41;;;;;;;14.10;10.25;;;;;;;20.79;52.87;100412.34;5041245;28;20064;-81
2021/07/02 07:18:09;;;;;;;13.20;9.52;;;;;;;20.70;52.97;100409.81;5036331;28;20466;-81
2021/07/02 07:20:36;;;;;;;13.65;9.20;;;;;;;20.32;54.19;100408.88;5054458;28;20049;-81
2021/07/02 07:23:03;;;;;;;17.42;9.73;;;;;;;20.73;54.13;100413.91;5041433;28;20049;-80
2021/07/02 07:25:32;;;;;;;15.85;9.68;;;;;;;20.80;52.06;100419.66;5046517;28;20053;-82
2021/07/02 07:27:59;;;;;;;13.60;9.80;;;;;;;20.82;52.80;100417.25;5042762;28;20045;-81
2021/07/02 07:30:27;;;;;;;12.05;9.25;;;;;;;20.84;52.26;100412.81;5047749;28;20045;-80
2021/07/02 07:32:55;;;;;;;13.95;10.05;;;;;;;20.84;51.91;100412.03;5036570;28;20065;-82
2021/07/02 07:35:25;;;;;;;13.75;10.32;;;;;;;20.86;52.27;100418.09;5045826;28;20057;-81
2021/07/02 07:37:55;;;;;;;13.48;10.35;;;;;;;20.96;52.22;100420.25;5044597;28;20052;-80
2021/07/02 07:40:23;;;;;;;16.75;10.48;;;;;;;21.34;50.84;100409.72;5051967;28;20049;-80
2021/07/02 07:42:52;;;;;;;14.25;11.02;;;;;;;21.78;51.46;100413.81;5037443;28;20056;-78
2021/07/02 07:45:20;;;;;;;15.73;10.50;;;;;;;21.86;49.03;100413.47;5041826;28;20052;-78
2021/07/02 07:47:48;;;;;;;12.13;9.88;;;;;;;22.01;50.56;100413.56;5043409;28;20056;-79
2021/07/02 07:50:18;;;;;;;13.13;10.32;;;;;;;22.13;50.11;100407.56;5035063;28;20058;-77
2021/07/02 07:52:52;;;;;;;21.77;10.90;;;;;;;22.11;50.17;100415.66;5035371;28;20057;-77
2021/07/02 07:55:20;;;;;;;17.17;10.68;;;;;;;21.86;48.79;100427.66;5044002;28;20064;-78
2021/07/02 07:57:47;;;;;;;13.18;9.35;;;;;;;22.17;49.65;100422.59;5042683;28;20050;-80
2021/07/02 08:00:18;;;;;;;13.35;9.60;;;;;;;22.12;48.48;100417.28;5024595;28;20050;-78
2021/07/02 08:02:46;;;;;;;13.05;9.88;;;;;;;22.47;48.33;100419.56;5031968;28;20061;-78
2021/07/02 08:05:14;;;;;;;12.38;9.23;;;;;;;23.75;45.67;100416.69;5036574;28;20068;-79
2021/07/02 08:07:44;;;;;;;13.70;9.20;;;;;;;24.62;44.34;100409.69;5038008;28;21283;-79
2021/07/02 08:10:13;;;;;;;12.35;8.43;;;;;;;24.48;43.23;100419.06;5043001;28;20050;-78
2021/07/02 08:12:41;;;;;;;10.48;7.50;;;;;;;24.10;44.01;100424.41;5040457;28;20116;-79
2021/07/02 08:15:11;;;;;;;11.70;8.05;;;;;;;25.46;41.46;100414.56;5047792;28;20057;-80
2021/07/02 08:17:40;;;;;;;11.63;7.35;;;;;;;27.07;38.25;100418.66;5045117;28;20054;-81
2021/07/02 08:20:09;;;;;;;11.13;7.20;;;;;;;27.08;37.71;100408.81;5048261;28;20057;-79
2021/07/02 08:22:37;;;;;;;11.82;7.68;;;;;;;26.37;37.80;100426.81;5044350;28;20057;-79
2021/07/02 08:25:06;;;;;;;11.02;7.78;;;;;;;25.35;40.27;100423.19;5033749;28;20490;-79
2021/07/02 08:29:22;;;;;;;;;;;;;;;24.64;40.44;100427.97;5040441;28;20072;-79
2021/07/02 08:30:21;;;;;;;10.05;6.38;;;;;;;24.00;42.95;100439.47;5030638;28;19928;-79
2021/07/02 08:32:49;;;;;;;8.77;6.57;;;;;;;23.54;43.93;100432.53;5035646;28;20064;-79
2021/07/02 08:35:20;;;;;;;10.00;6.90;;;;;;;22.99;43.67;100433.56;5040517;28;20374;-79
2021/07/02 08:37:51;;;;;;;8.48;6.65;;;;;;;22.74;44.44;100432.66;5041907;28;20049;-81
2021/07/02 08:40:19;;;;;;;9.10;6.97;;;;;;;22.69;44.54;100423.31;5046898;28;20049;-80
2021/07/02 08:42:46;;;;;;;9.73;6.55;;;;;;;22.89;44.95;100425.84;5038865;28;20049;-79
2021/07/02 08:45:14;;;;;;;8.60;6.70;;;;;;;22.72;45.80;100430.25;5051982;28;20478;-78
2021/07/02 08:47:45;;;;;;;11.55;6.65;;;;;;;22.72;45.58;100424.56;5043449;28;20478;-78
2021/07/02 08:50:15;;;;;;;9.93;6.93;;;;;;;22.85;45.00;100430.69;5048309;28;20389;-79
2021/07/02 08:52:43;;;;;;;11.05;8.05;;;;;;;23.96;42.32;100433.78;5045003;28;20058;-79
2021/07/02 08:55:12;;;;;;;8.95;6.60;;;;;;;26.83;38.64;100420.59;5029017;28;20054;-78
2021/07/02 08:57:39;;;;;;;8.43;6.15;;;;;;;29.20;33.64;100415.72;5036726;28;20053;-79
2021/07/02 09:00:08;;;;;;;8.00;5.65;;;;;;;29.45;33.78;100426.63;5061947;28;20072;-79
2021/07/02 09:02:38;;;;;;;7.70;5.78;;;;;;;28.53;34.55;100428.97;5042909;28;20053;-79
2021/07/02 09:05:32;;;;;;;8.68;4.93;;;;;;;28.65;32.81;100430.38;5040539;28;20470;-79
2021/07/02 09:08:00;;;;;;;7.38;4.65;;;;;;;28.09;32.35;100430.19;5040163;28;20049;-80
2021/07/02 09:10:32;;;;;;;5.93;4.60;;;;;;;29.47;29.24;100422.06;5040374;28;20053;-82
2021/07/02 09:12:59;;;;;;;6.32;4.50;;;;;;;31.40;27.99;100422.97;5042126;28;20057;-81
2021/07/02 09:15:26;;;;;;;5.50;4.25;;;;;;;32.95;26.50;100419.25;5038933;28;20046;-81
2021/07/02 09:17:55;;;;;;;4.50;3.65;;;;;;;34.67;24.61;100412.09;5041301;28;20052;-80
2021/07/02 09:20:24;;;;;;;5.90;4.13;;;;;;;33.70;25.26;100413.38;5038772;28;20065;-81
2021/07/02 09:22:55;;;;;;;5.72;3.65;;;;;;;31.68;26.91;100422.06;5039830;28;20414;-79
2021/07/02 09:25:25;;;;;;;5.47;3.50;;;;;;;30.08;27.85;100416.88;5036570;28;20049;-80
2021/07/02 09:27:54;;;;;;;5.53;2.92;;;;;;;28.66;30.73;100437.72;5053840;28;20072;-81
2021/07/02 09:30:24;;;;;;;5.03;2.95;;;;;;;28.21;30.76;100440.22;5043850;28;20510;-81
2021/07/02 09:32:53;;;;;;;4.43;2.80;;;;;;;27.90;30.75;100437.47;5034946;28;20053;-78
2021/07/02 09:35:24;;;;;;;5.60;3.33;;;;;;;26.64;33.05;100427.75;5053103;28;20559;-79
2021/07/02 09:37:59;;;;;;;4.72;3.15;;;;;;;26.42;32.85;100430.03;5057841;28;20059;-81
2021/07/02 09:40:29;;;;;;;7.55;3.47;;;;;;;26.43;33.97;100442.28;5041193;28;20045;-80
2021/07/02 09:43:03;;;;;;;5.38;3.33;;;;;;;25.57;33.56;100440.16;5024224;28;20407;-78
2021/07/02 09:45:31;;;;;;;4.90;2.63;;;;;;;25.75;34.80;100437.19;5033781;28;20054;-80
2021/07/02 09:48:07;;;;;;;3.90;3.28;;;;;;;25.44;35.23;100437.78;5042205;28;20049;-81
2021/07/02 09:50:35;;;;;;;5.65;3.25;;;;;;;25.45;35.97;100433.72;5050342;28;20049;-82
2021/07/02 09:53:05;;;;;;;5.03;3.20;;;;;;;25.40;35.73;100439.84;5044827;28;20064;-82
2021/07/02 09:55:35;;;;;;;3.50;3.10;;;;;;;26.62;32.58;100433.09;5046971;28;20057;-81
2021/07/02 09:58:08;;;;;;;4.25;3.55;;;;;;;29.43;28.98;100432.81;5047391;28;20096;-80
2021/07/02 10:00:40;;;;;;;6.05;3.22;;;;;;;31.90;26.83;100422.16;5038363;28;20422;-78
2021/07/02 10:03:08;;;;;;;4.38;2.80;;;;;;;30.22;27.06;100435.78;5045804;28;20060;-78
2021/07/02 10:05:47;;;;;;;4.65;2.60;;;;;;;29.29;27.85;100430.25;5037172;28;20053;-78
2021/07/02 10:08:16;;;;;;;4.10;2.85;;;;;;;28.30;29.93;100441.25;5035517;28;20064;-80
2021/07/02 10:10:43;;;;;;;;;;;;;;;28.06;30.27;100443.31;5032628;28;20054;-79
2021/07/02 10:13:11;;;;;;;5.03;2.80;;;;;;;27.83;31.74;100446.97;5035913;28;20044;-80
2021/07/02 10:15:38;;;;;;;3.75;2.58;;;;;;;28.02;32.67;100444.66;5034395;28;20049;-82
2021/07/02 10:18:11;;;;;;;4.57;3.00;;;;;;;28.14;31.79;100452.63;5037261;28;20046;-83
2021/07/02 10:20:41;;;;;;;3.88;3.38;;;;;;;29.12;28.66;100438.81;5051555;28;20064;-83
2021/07/02 10:23:11;;;;;;;4.50;2.63;;;;;;;29.29;29.90;100436.84;5039495;28;20053;-79
2021/07/02 10:25:42;;;;;;;3.45;2.58;;;;;;;28.67;28.80;100456.53;5056244;28;20050;-84
2021/07/02 10:28:14;;;;;;;3.92;2.30;;;;;;;27.87;29.25;100446.94;5056436;28;20045;-80
2021/07/02 10:30:42;;;;;;;3.22;2.42;;;;;;;27.18;30.49;100441.38;5056141;28;20058;-82
2021/07/02 10:33:11;;;;;;;3.85;3.13;;;;;;;28.99;28.13;100437.06;5039292;28;20049;-83
2021/07/02 10:35:44;;;;;;;3.15;2.30;;;;;;;30.77;24.90;100439.63;5039487;28;20053;-83
2021/07/02 10:38:12;;;;;;;3.17;2.63;;;;;;;32.07;23.83;100445.09;5054142;28;20053;-84
2021/07/02 10:40:43;;;;;;;2.72;2.25;;;;;;;32.13;22.14;100452.66;5055077;28;20053;-84
2021/07/02 10:43:15;;;;;;;2.67;2.30;;;;;;;33.10;21.10;100454.97;5041943;28;20487;-85
2021/07/02 10:46:14;;;;;;;3.85;2.83;;;;;;;32.64;21.38;100457.47;5040131;28;20057;-86
2021/07/02 10:48:52;;;;;;;3.28;2.58;;;;;;;35.87;17.89;100445.69;5018687;28;20050;-86
2021/07/02 10:51:54;;;;;;;4.95;2.65;;;;;;;36.87;17.17;100448.34;5020923;28;20064;-86
2021/07/02 10:54:43;;;;;;;3.28;2.97;;;;;;;37.68;16.24;100447.16;4961364;28;20058;-85
2021/07/02 10:57:15;;;;;;;2.92;2.63;;;;;;;37.72;16.52;100434.00;5040505;28;20406;-83
2021/07/02 11:00:11;;;;;;;3.45;3.15;;;;;;;39.73;15.10;100438.13;5039999;28;20069;-81
2021/07/02 11:02:39;;;;;;;4.03;2.90;;;;;;;41.20;14.83;100429.97;5029890;28;20054;-82
2021/07/02 11:05:41;;;;;;;4.13;2.90;;;;;;;41.82;13.07;100441.66;5019376;28;20061;-82
2021/07/02 11:08:09;;;;;;;3.13;2.22;;;;;;;38.57;15.79;100446.81;5035018;28;20057;-82
2021/07/02 11:10:59;;;;;;;3.75;2.85;;;;;;;39.01;15.51;100434.06;5038761;28;20064;-81
2021/07/02 11:13:28;;;;;;;3.95;2.58;;;;;;;38.22;15.62;100438.16;5027385;28;20046;-84
2021/07/02 11:16:07;;;;;;;3.42;2.63;;;;;;;35.79;17.99;100439.44;5018416;28;20487;-84
2021/07/02 11:18:43;;;;;;;3.55;3.25;;;;;;;36.66;17.87;100427.88;5018113;28;20060;-83
2021/07/02 11:21:18;;;;;;;4.75;3.72;;;;;;;38.97;15.85;100431.38;5018168;28;20065;-84
2021/07/02 11:23:47;;;;;;;4.25;3.10;;;;;;;39.93;15.20;100432.19;5054586;28;20052;-81